sensor_id;sensor_type;location;lat;lon;timestamp;P1;durP1;ratioP1;P2;durP2;ratioP2
18230;SDS011;9240;49.966;21.994;2024-03-25T00:01:59;36.67;;;18.80;;
18230;SDS011;9240;49.966;21.994;2024-03-25T00:04:24;40.03;;;18.37;;
18230;SDS011;9240;49.966;21.994;2024-03-25T00:06:50;34.00;;;17.00;;
18230;SDS011;9240;49.966;21.994;2024-03-25T00:09:15;32.07;;;16.63;;
18230;SDS011;9240;49.966;21.994;2024-03-25T00:11:42;30.57;;;16.80;;
18230;SDS011;9240;49.966;21.994;2024-03-25T00:14:08;29.37;;;15.23;;
18230;SDS011;9240;49.966;21.994;2024-03-25T00:16:34;28.80;;;15.23;;
18230;SDS011;9240;49.966;21.994;2024-03-25T00:19:00;32.73;;;15.50;;
18230;SDS011;9240;49.966;21.994;2024-03-25T00:21:25;36.67;;;17.97;;
18230;SDS011;9240;49.966;21.994;2024-03-25T00:23:51;39.13;;;19.90;;
18230;SDS011;9240;49.966;21.994;2024-03-25T00:26:16;36.20;;;19.53;;
18230;SDS011;9240;49.966;21.994;2024-03-25T00:28:43;34.50;;;17.90;;
18230;SDS011;9240;49.966;21.994;2024-03-25T00:31:09;30.83;;;17.03;;
18230;SDS011;9240;49.966;21.994;2024-03-25T00:33:34;31.30;;;16.90;;
18230;SDS011;9240;49.966;21.994;2024-03-25T00:36:00;31.10;;;17.03;;
18230;SDS011;9240;49.966;21.994;2024-03-25T00:38:26;30.50;;;16.83;;
18230;SDS011;9240;49.966;21.994;2024-03-25T00:40:51;30.53;;;17.10;;
18230;SDS011;9240;49.966;21.994;2024-03-25T00:43:17;33.13;;;18.17;;
18230;SDS011;9240;49.966;21.994;2024-03-25T00:45:44;33.57;;;18.83;;
18230;SDS011;9240;49.966;21.994;2024-03-25T00:48:16;34.50;;;19.17;;
18230;SDS011;9240;49.966;21.994;2024-03-25T00:50:42;33.40;;;18.67;;
18230;SDS011;9240;49.966;21.994;2024-03-25T00:53:07;31.60;;;17.53;;
18230;SDS011;9240;49.966;21.994;2024-03-25T00:55:33;32.47;;;17.13;;
18230;SDS011;9240;49.966;21.994;2024-03-25T00:57:58;33.67;;;18.67;;
18230;SDS011;9240;49.966;21.994;2024-03-25T01:00:24;35.07;;;19.40;;
18230;SDS011;9240;49.966;21.994;2024-03-25T01:02:51;32.13;;;18.37;;
18230;SDS011;9240;49.966;21.994;2024-03-25T01:05:16;32.40;;;18.53;;
18230;SDS011;9240;49.966;21.994;2024-03-25T01:07:42;32.43;;;17.80;;
18230;SDS011;9240;49.966;21.994;2024-03-25T01:10:07;31.13;;;16.53;;
18230;SDS011;9240;49.966;21.994;2024-03-25T01:12:33;31.50;;;16.60;;
18230;SDS011;9240;49.966;21.994;2024-03-25T01:14:58;29.57;;;15.57;;
18230;SDS011;9240;49.966;21.994;2024-03-25T01:17:24;30.07;;;16.30;;
18230;SDS011;9240;49.966;21.994;2024-03-25T01:19:51;30.20;;;15.97;;
18230;SDS011;9240;49.966;21.994;2024-03-25T01:22:16;30.27;;;16.80;;
18230;SDS011;9240;49.966;21.994;2024-03-25T01:24:42;25.33;;;14.60;;
18230;SDS011;9240;49.966;21.994;2024-03-25T01:27:07;27.27;;;15.03;;
18230;SDS011;9240;49.966;21.994;2024-03-25T01:29:33;25.97;;;14.50;;
18230;SDS011;9240;49.966;21.994;2024-03-25T01:31:58;29.03;;;14.30;;
18230;SDS011;9240;49.966;21.994;2024-03-25T01:34:23;26.50;;;15.67;;
18230;SDS011;9240;49.966;21.994;2024-03-25T01:36:50;28.93;;;15.80;;
18230;SDS011;9240;49.966;21.994;2024-03-25T01:39:16;32.47;;;16.53;;
18230;SDS011;9240;49.966;21.994;2024-03-25T01:41:41;34.77;;;17.00;;
18230;SDS011;9240;49.966;21.994;2024-03-25T01:44:07;32.33;;;17.13;;
18230;SDS011;9240;49.966;21.994;2024-03-25T01:46:32;33.13;;;17.07;;
18230;SDS011;9240;49.966;21.994;2024-03-25T01:48:58;33.57;;;17.73;;
18230;SDS011;9240;49.966;21.994;2024-03-25T01:51:23;32.17;;;17.87;;
18230;SDS011;9240;49.966;21.994;2024-03-25T01:53:51;27.13;;;14.50;;
18230;SDS011;9240;49.966;21.994;2024-03-25T01:56:18;32.00;;;16.63;;
18230;SDS011;9240;49.966;21.994;2024-03-25T01:58:44;26.50;;;14.23;;
18230;SDS011;9240;49.966;21.994;2024-03-25T02:01:10;28.57;;;13.70;;
18230;SDS011;9240;49.966;21.994;2024-03-25T02:03:37;23.90;;;12.67;;
18230;SDS011;9240;49.966;21.994;2024-03-25T02:06:04;22.00;;;10.90;;
18230;SDS011;9240;49.966;21.994;2024-03-25T02:08:34;20.43;;;10.60;;
18230;SDS011;9240;49.966;21.994;2024-03-25T02:11:02;22.13;;;10.80;;
18230;SDS011;9240;49.966;21.994;2024-03-25T02:13:28;16.57;;;9.40;;
18230;SDS011;9240;49.966;21.994;2024-03-25T02:15:53;17.87;;;8.93;;
18230;SDS011;9240;49.966;21.994;2024-03-25T02:18:19;23.70;;;9.93;;
18230;SDS011;9240;49.966;21.994;2024-03-25T02:20:44;23.53;;;12.43;;
18230;SDS011;9240;49.966;21.994;2024-03-25T02:23:10;25.47;;;13.57;;
18230;SDS011;9240;49.966;21.994;2024-03-25T02:25:36;32.03;;;16.33;;
18230;SDS011;9240;49.966;21.994;2024-03-25T02:28:05;33.93;;;17.20;;
18230;SDS011;9240;49.966;21.994;2024-03-25T02:30:31;30.53;;;16.30;;
18230;SDS011;9240;49.966;21.994;2024-03-25T02:32:56;34.63;;;16.57;;
18230;SDS011;9240;49.966;21.994;2024-03-25T02:35:22;36.10;;;17.00;;
18230;SDS011;9240;49.966;21.994;2024-03-25T02:37:50;32.60;;;16.50;;
18230;SDS011;9240;49.966;21.994;2024-03-25T02:40:16;27.70;;;14.77;;
18230;SDS011;9240;49.966;21.994;2024-03-25T02:42:42;28.23;;;15.33;;
18230;SDS011;9240;49.966;21.994;2024-03-25T02:45:10;28.13;;;13.83;;
18230;SDS011;9240;49.966;21.994;2024-03-25T02:47:35;25.47;;;13.80;;
18230;SDS011;9240;49.966;21.994;2024-03-25T02:50:01;26.53;;;13.97;;
18230;SDS011;9240;49.966;21.994;2024-03-25T02:52:26;25.57;;;13.20;;
18230;SDS011;9240;49.966;21.994;2024-03-25T02:54:52;31.83;;;15.77;;
18230;SDS011;9240;49.966;21.994;2024-03-25T02:57:17;27.57;;;14.90;;
18230;SDS011;9240;49.966;21.994;2024-03-25T02:59:43;25.07;;;13.53;;
18230;SDS011;9240;49.966;21.994;2024-03-25T03:02:10;24.07;;;12.30;;
18230;SDS011;9240;49.966;21.994;2024-03-25T03:04:35;24.53;;;13.07;;
18230;SDS011;9240;49.966;21.994;2024-03-25T03:07:01;23.23;;;13.37;;
18230;SDS011;9240;49.966;21.994;2024-03-25T03:09:26;24.10;;;12.67;;
18230;SDS011;9240;49.966;21.994;2024-03-25T03:11:52;21.67;;;11.17;;
18230;SDS011;9240;49.966;21.994;2024-03-25T03:14:17;18.40;;;9.83;;
18230;SDS011;9240;49.966;21.994;2024-03-25T03:16:43;20.83;;;9.97;;
18230;SDS011;9240;49.966;21.994;2024-03-25T03:19:09;19.63;;;11.13;;
18230;SDS011;9240;49.966;21.994;2024-03-25T03:21:35;19.77;;;10.13;;
18230;SDS011;9240;49.966;21.994;2024-03-25T03:24:00;19.07;;;10.17;;
18230;SDS011;9240;49.966;21.994;2024-03-25T03:26:26;19.30;;;9.97;;
18230;SDS011;9240;49.966;21.994;2024-03-25T03:28:51;19.57;;;10.63;;
18230;SDS011;9240;49.966;21.994;2024-03-25T03:31:17;21.33;;;10.87;;
18230;SDS011;9240;49.966;21.994;2024-03-25T03:33:42;18.60;;;9.53;;
18230;SDS011;9240;49.966;21.994;2024-03-25T03:36:09;18.80;;;10.83;;
18230;SDS011;9240;49.966;21.994;2024-03-25T03:38:35;22.53;;;12.50;;
18230;SDS011;9240;49.966;21.994;2024-03-25T03:41:01;21.37;;;12.07;;
18230;SDS011;9240;49.966;21.994;2024-03-25T03:43:27;21.40;;;11.63;;
18230;SDS011;9240;49.966;21.994;2024-03-25T03:45:53;23.43;;;12.73;;
18230;SDS011;9240;49.966;21.994;2024-03-25T03:48:18;21.43;;;12.73;;
18230;SDS011;9240;49.966;21.994;2024-03-25T03:50:44;26.50;;;13.60;;
18230;SDS011;9240;49.966;21.994;2024-03-25T03:53:11;26.07;;;12.07;;
18230;SDS011;9240;49.966;21.994;2024-03-25T03:55:36;24.43;;;12.90;;
18230;SDS011;9240;49.966;21.994;2024-03-25T03:58:02;27.40;;;14.73;;
18230;SDS011;9240;49.966;21.994;2024-03-25T04:00:28;23.30;;;12.80;;
18230;SDS011;9240;49.966;21.994;2024-03-25T04:02:54;27.30;;;13.47;;
18230;SDS011;9240;49.966;21.994;2024-03-25T04:05:19;23.97;;;13.13;;
18230;SDS011;9240;49.966;21.994;2024-03-25T04:07:45;23.53;;;13.30;;
18230;SDS011;9240;49.966;21.994;2024-03-25T04:10:12;23.23;;;12.60;;
18230;SDS011;9240;49.966;21.994;2024-03-25T04:12:38;24.27;;;13.07;;
18230;SDS011;9240;49.966;21.994;2024-03-25T04:15:04;22.07;;;11.40;;
18230;SDS011;9240;49.966;21.994;2024-03-25T04:17:30;20.33;;;11.20;;
18230;SDS011;9240;49.966;21.994;2024-03-25T04:19:58;20.83;;;11.70;;
18230;SDS011;9240;49.966;21.994;2024-03-25T04:22:23;24.60;;;12.17;;
18230;SDS011;9240;49.966;21.994;2024-03-25T04:24:49;23.17;;;12.27;;
18230;SDS011;9240;49.966;21.994;2024-03-25T04:27:16;26.03;;;13.13;;
18230;SDS011;9240;49.966;21.994;2024-03-25T04:29:41;22.73;;;12.43;;
18230;SDS011;9240;49.966;21.994;2024-03-25T04:32:07;21.63;;;12.33;;
18230;SDS011;9240;49.966;21.994;2024-03-25T04:34:32;24.67;;;12.90;;
18230;SDS011;9240;49.966;21.994;2024-03-25T04:36:58;25.53;;;13.40;;
18230;SDS011;9240;49.966;21.994;2024-03-25T04:39:23;28.13;;;14.27;;
18230;SDS011;9240;49.966;21.994;2024-03-25T04:41:48;22.63;;;13.37;;
18230;SDS011;9240;49.966;21.994;2024-03-25T04:44:16;26.57;;;14.40;;
18230;SDS011;9240;49.966;21.994;2024-03-25T04:46:41;26.60;;;13.33;;
18230;SDS011;9240;49.966;21.994;2024-03-25T04:49:07;28.67;;;14.47;;
18230;SDS011;9240;49.966;21.994;2024-03-25T04:51:32;22.97;;;12.90;;
18230;SDS011;9240;49.966;21.994;2024-03-25T04:53:58;23.23;;;12.30;;
18230;SDS011;9240;49.966;21.994;2024-03-25T04:56:23;23.67;;;12.07;;
18230;SDS011;9240;49.966;21.994;2024-03-25T04:58:49;22.30;;;12.00;;
18230;SDS011;9240;49.966;21.994;2024-03-25T05:01:15;23.20;;;12.37;;
18230;SDS011;9240;49.966;21.994;2024-03-25T05:03:41;22.27;;;12.80;;
18230;SDS011;9240;49.966;21.994;2024-03-25T05:06:07;21.90;;;11.77;;
18230;SDS011;9240;49.966;21.994;2024-03-25T05:08:33;24.63;;;12.47;;
18230;SDS011;9240;49.966;21.994;2024-03-25T05:10:58;20.77;;;11.47;;
18230;SDS011;9240;49.966;21.994;2024-03-25T05:13:24;21.97;;;12.20;;
18230;SDS011;9240;49.966;21.994;2024-03-25T05:15:50;21.13;;;11.40;;
18230;SDS011;9240;49.966;21.994;2024-03-25T05:18:16;21.73;;;11.83;;
18230;SDS011;9240;49.966;21.994;2024-03-25T05:20:42;19.13;;;11.43;;
18230;SDS011;9240;49.966;21.994;2024-03-25T05:23:07;18.43;;;10.83;;
18230;SDS011;9240;49.966;21.994;2024-03-25T05:25:34;20.43;;;11.57;;
18230;SDS011;9240;49.966;21.994;2024-03-25T05:27:59;19.40;;;11.80;;
18230;SDS011;9240;49.966;21.994;2024-03-25T05:30:25;25.20;;;14.33;;
18230;SDS011;9240;49.966;21.994;2024-03-25T05:32:51;19.60;;;11.20;;
18230;SDS011;9240;49.966;21.994;2024-03-25T05:35:17;34.83;;;22.77;;
18230;SDS011;9240;49.966;21.994;2024-03-25T05:37:43;43.10;;;25.43;;
18230;SDS011;9240;49.966;21.994;2024-03-25T05:40:09;25.27;;;16.63;;
18230;SDS011;9240;49.966;21.994;2024-03-25T05:42:35;23.17;;;13.00;;
18230;SDS011;9240;49.966;21.994;2024-03-25T05:45:00;18.20;;;10.87;;
18230;SDS011;9240;49.966;21.994;2024-03-25T05:47:26;16.63;;;10.37;;
18230;SDS011;9240;49.966;21.994;2024-03-25T05:49:51;16.20;;;9.70;;
18230;SDS011;9240;49.966;21.994;2024-03-25T05:52:18;14.53;;;9.30;;
18230;SDS011;9240;49.966;21.994;2024-03-25T05:54:44;16.83;;;10.23;;
18230;SDS011;9240;49.966;21.994;2024-03-25T05:57:09;16.70;;;9.90;;
18230;SDS011;9240;49.966;21.994;2024-03-25T05:59:35;15.50;;;9.07;;
18230;SDS011;9240;49.966;21.994;2024-03-25T06:02:00;16.53;;;9.13;;
18230;SDS011;9240;49.966;21.994;2024-03-25T06:04:25;23.20;;;9.67;;
18230;SDS011;9240;49.966;21.994;2024-03-25T06:06:51;18.30;;;9.77;;
18230;SDS011;9240;49.966;21.994;2024-03-25T06:09:18;17.70;;;9.67;;
18230;SDS011;9240;49.966;21.994;2024-03-25T06:11:43;18.00;;;10.17;;
18230;SDS011;9240;49.966;21.994;2024-03-25T06:14:09;20.37;;;9.50;;
18230;SDS011;9240;49.966;21.994;2024-03-25T06:16:34;17.93;;;10.03;;
18230;SDS011;9240;49.966;21.994;2024-03-25T06:18:59;17.57;;;9.60;;
18230;SDS011;9240;49.966;21.994;2024-03-25T06:21:25;16.23;;;9.00;;
18230;SDS011;9240;49.966;21.994;2024-03-25T06:23:50;14.57;;;8.77;;
18230;SDS011;9240;49.966;21.994;2024-03-25T06:26:17;15.63;;;8.87;;
18230;SDS011;9240;49.966;21.994;2024-03-25T06:28:43;13.70;;;8.40;;
18230;SDS011;9240;49.966;21.994;2024-03-25T06:31:08;14.67;;;8.63;;
18230;SDS011;9240;49.966;21.994;2024-03-25T06:33:34;15.40;;;8.37;;
18230;SDS011;9240;49.966;21.994;2024-03-25T06:35:59;15.97;;;7.40;;
18230;SDS011;9240;49.966;21.994;2024-03-25T06:38:25;13.67;;;6.77;;
18230;SDS011;9240;49.966;21.994;2024-03-25T06:40:50;11.13;;;5.67;;
18230;SDS011;9240;49.966;21.994;2024-03-25T06:43:17;16.43;;;7.03;;
18230;SDS011;9240;49.966;21.994;2024-03-25T06:45:42;12.63;;;5.83;;
18230;SDS011;9240;49.966;21.994;2024-03-25T06:48:08;11.07;;;6.13;;
18230;SDS011;9240;49.966;21.994;2024-03-25T06:50:33;10.93;;;6.10;;
18230;SDS011;9240;49.966;21.994;2024-03-25T06:52:59;10.83;;;6.00;;
18230;SDS011;9240;49.966;21.994;2024-03-25T06:55:24;12.03;;;6.33;;
18230;SDS011;9240;49.966;21.994;2024-03-25T06:57:49;13.30;;;6.53;;
18230;SDS011;9240;49.966;21.994;2024-03-25T07:00:17;10.83;;;6.57;;
18230;SDS011;9240;49.966;21.994;2024-03-25T07:02:43;11.07;;;6.50;;
18230;SDS011;9240;49.966;21.994;2024-03-25T07:05:09;10.53;;;6.30;;
18230;SDS011;9240;49.966;21.994;2024-03-25T07:07:34;8.70;;;5.87;;
18230;SDS011;9240;49.966;21.994;2024-03-25T07:10:00;9.47;;;5.90;;
18230;SDS011;9240;49.966;21.994;2024-03-25T07:12:25;9.93;;;5.90;;
18230;SDS011;9240;49.966;21.994;2024-03-25T07:14:51;16.20;;;7.10;;
18230;SDS011;9240;49.966;21.994;2024-03-25T07:17:18;11.73;;;7.00;;
18230;SDS011;9240;49.966;21.994;2024-03-25T07:19:43;11.30;;;5.37;;
18230;SDS011;9240;49.966;21.994;2024-03-25T07:22:09;8.47;;;5.00;;
18230;SDS011;9240;49.966;21.994;2024-03-25T07:24:34;9.00;;;5.13;;
18230;SDS011;9240;49.966;21.994;2024-03-25T07:27:00;12.63;;;5.30;;
18230;SDS011;9240;49.966;21.994;2024-03-25T07:29:25;7.85;;;4.93;;
18230;SDS011;9240;49.966;21.994;2024-03-25T07:31:50;8.43;;;4.60;;
18230;SDS011;9240;49.966;21.994;2024-03-25T07:34:17;6.95;;;4.05;;
18230;SDS011;9240;49.966;21.994;2024-03-25T07:36:43;6.90;;;3.80;;
18230;SDS011;9240;49.966;21.994;2024-03-25T07:39:08;6.10;;;3.93;;
18230;SDS011;9240;49.966;21.994;2024-03-25T07:41:34;5.60;;;3.40;;
18230;SDS011;9240;49.966;21.994;2024-03-25T07:43:59;7.03;;;3.75;;
18230;SDS011;9240;49.966;21.994;2024-03-25T07:46:25;5.78;;;3.72;;
18230;SDS011;9240;49.966;21.994;2024-03-25T07:48:50;5.13;;;3.13;;
18230;SDS011;9240;49.966;21.994;2024-03-25T07:51:17;4.63;;;3.10;;
18230;SDS011;9240;49.966;21.994;2024-03-25T07:53:42;4.97;;;2.17;;
18230;SDS011;9240;49.966;21.994;2024-03-25T07:56:08;2.83;;;1.80;;
18230;SDS011;9240;49.966;21.994;2024-03-25T07:58:33;3.23;;;1.60;;
18230;SDS011;9240;49.966;21.994;2024-03-25T08:00:59;4.07;;;1.70;;
18230;SDS011;9240;49.966;21.994;2024-03-25T08:03:24;2.13;;;1.70;;
18230;SDS011;9240;49.966;21.994;2024-03-25T08:05:49;3.53;;;2.30;;
18230;SDS011;9240;49.966;21.994;2024-03-25T08:08:16;2.60;;;1.40;;
18230;SDS011;9240;49.966;21.994;2024-03-25T08:10:42;3.90;;;1.50;;
18230;SDS011;9240;49.966;21.994;2024-03-25T08:13:07;2.03;;;1.40;;
18230;SDS011;9240;49.966;21.994;2024-03-25T08:15:33;2.60;;;1.40;;
18230;SDS011;9240;49.966;21.994;2024-03-25T08:17:58;2.70;;;1.60;;
18230;SDS011;9240;49.966;21.994;2024-03-25T08:20:24;2.03;;;1.63;;
18230;SDS011;9240;49.966;21.994;2024-03-25T08:22:49;2.60;;;1.50;;
18230;SDS011;9240;49.966;21.994;2024-03-25T08:25:16;3.50;;;2.00;;
18230;SDS011;9240;49.966;21.994;2024-03-25T08:27:41;4.60;;;1.83;;
18230;SDS011;9240;49.966;21.994;2024-03-25T08:30:07;2.70;;;1.53;;
18230;SDS011;9240;49.966;21.994;2024-03-25T08:32:34;2.63;;;1.60;;
18230;SDS011;9240;49.966;21.994;2024-03-25T08:34:59;3.10;;;1.70;;
18230;SDS011;9240;49.966;21.994;2024-03-25T08:37:25;3.28;;;1.60;;
18230;SDS011;9240;49.966;21.994;2024-03-25T08:39:50;4.20;;;1.60;;
18230;SDS011;9240;49.966;21.994;2024-03-25T08:42:17;3.47;;;2.00;;
18230;SDS011;9240;49.966;21.994;2024-03-25T08:44:42;3.27;;;1.50;;
18230;SDS011;9240;49.966;21.994;2024-03-25T08:47:08;1.77;;;1.40;;
18230;SDS011;9240;49.966;21.994;2024-03-25T08:49:33;3.50;;;1.60;;
18230;SDS011;9240;49.966;21.994;2024-03-25T08:51:59;3.03;;;1.77;;
18230;SDS011;9240;49.966;21.994;2024-03-25T08:54:24;6.67;;;1.70;;
18230;SDS011;9240;49.966;21.994;2024-03-25T08:56:49;3.50;;;1.30;;
18230;SDS011;9240;49.966;21.994;2024-03-25T08:59:16;3.03;;;1.33;;
18230;SDS011;9240;49.966;21.994;2024-03-25T09:01:42;2.70;;;1.37;;
18230;SDS011;9240;49.966;21.994;2024-03-25T09:04:07;2.63;;;1.30;;
18230;SDS011;9240;49.966;21.994;2024-03-25T09:06:33;2.20;;;1.60;;
18230;SDS011;9240;49.966;21.994;2024-03-25T09:08:58;3.00;;;1.40;;
18230;SDS011;9240;49.966;21.994;2024-03-25T09:11:23;2.80;;;1.17;;
18230;SDS011;9240;49.966;21.994;2024-03-25T09:13:49;1.60;;;1.07;;
18230;SDS011;9240;49.966;21.994;2024-03-25T09:16:16;2.13;;;1.10;;
18230;SDS011;9240;49.966;21.994;2024-03-25T09:18:41;2.67;;;1.27;;
18230;SDS011;9240;49.966;21.994;2024-03-25T09:21:07;1.63;;;1.20;;
18230;SDS011;9240;49.966;21.994;2024-03-25T09:23:32;2.93;;;1.30;;
18230;SDS011;9240;49.966;21.994;2024-03-25T09:25:58;1.43;;;1.07;;
18230;SDS011;9240;49.966;21.994;2024-03-25T09:28:23;2.00;;;1.10;;
18230;SDS011;9240;49.966;21.994;2024-03-25T09:30:48;2.77;;;1.03;;
18230;SDS011;9240;49.966;21.994;2024-03-25T09:33:15;2.40;;;1.13;;
18230;SDS011;9240;49.966;21.994;2024-03-25T09:35:41;1.80;;;1.10;;
18230;SDS011;9240;49.966;21.994;2024-03-25T09:38:07;2.30;;;1.65;;
18230;SDS011;9240;49.966;21.994;2024-03-25T09:40:32;2.45;;;1.50;;
18230;SDS011;9240;49.966;21.994;2024-03-25T09:43:01;1.83;;;1.52;;
18230;SDS011;9240;49.966;21.994;2024-03-25T09:45:28;3.65;;;1.23;;
18230;SDS011;9240;49.966;21.994;2024-03-25T09:47:55;4.22;;;1.55;;
18230;SDS011;9240;49.966;21.994;2024-03-25T09:50:22;1.65;;;1.05;;
18230;SDS011;9240;49.966;21.994;2024-03-25T09:52:48;2.13;;;1.10;;
18230;SDS011;9240;49.966;21.994;2024-03-25T09:55:14;1.38;;;1.02;;
18230;SDS011;9240;49.966;21.994;2024-03-25T09:57:40;2.03;;;0.80;;
18230;SDS011;9240;49.966;21.994;2024-03-25T10:00:08;1.63;;;1.02;;
18230;SDS011;9240;49.966;21.994;2024-03-25T10:02:34;1.27;;;0.88;;
18230;SDS011;9240;49.966;21.994;2024-03-25T10:05:01;1.25;;;0.80;;
18230;SDS011;9240;49.966;21.994;2024-03-25T10:07:28;2.42;;;1.13;;
18230;SDS011;9240;49.966;21.994;2024-03-25T10:09:53;0.93;;;0.85;;
18230;SDS011;9240;49.966;21.994;2024-03-25T10:12:19;1.67;;;0.90;;
18230;SDS011;9240;49.966;21.994;2024-03-25T10:14:44;1.35;;;0.82;;
18230;SDS011;9240;49.966;21.994;2024-03-25T10:17:10;1.38;;;0.98;;
18230;SDS011;9240;49.966;21.994;2024-03-25T10:19:36;2.08;;;1.10;;
18230;SDS011;9240;49.966;21.994;2024-03-25T10:22:03;0.75;;;0.73;;
18230;SDS011;9240;49.966;21.994;2024-03-25T10:24:38;1.13;;;0.80;;
18230;SDS011;9240;49.966;21.994;2024-03-25T10:27:04;2.40;;;1.10;;
18230;SDS011;9240;49.966;21.994;2024-03-25T10:29:30;2.15;;;1.40;;
18230;SDS011;9240;49.966;21.994;2024-03-25T10:31:58;2.97;;;1.30;;
18230;SDS011;9240;49.966;21.994;2024-03-25T10:34:24;2.40;;;1.30;;
18230;SDS011;9240;49.966;21.994;2024-03-25T10:36:49;2.00;;;1.38;;
18230;SDS011;9240;49.966;21.994;2024-03-25T10:39:15;1.75;;;1.33;;
18230;SDS011;9240;49.966;21.994;2024-03-25T10:41:45;2.00;;;1.40;;
18230;SDS011;9240;49.966;21.994;2024-03-25T10:44:13;2.67;;;1.50;;
18230;SDS011;9240;49.966;21.994;2024-03-25T10:46:39;3.13;;;1.30;;
18230;SDS011;9240;49.966;21.994;2024-03-25T10:49:07;3.33;;;1.70;;
18230;SDS011;9240;49.966;21.994;2024-03-25T10:51:41;4.38;;;1.60;;
18230;SDS011;9240;49.966;21.994;2024-03-25T10:54:09;2.13;;;1.50;;
18230;SDS011;9240;49.966;21.994;2024-03-25T10:56:35;3.00;;;1.60;;
18230;SDS011;9240;49.966;21.994;2024-03-25T10:59:02;3.40;;;1.73;;
18230;SDS011;9240;49.966;21.994;2024-03-25T11:01:29;3.55;;;1.88;;
18230;SDS011;9240;49.966;21.994;2024-03-25T11:03:55;2.67;;;1.80;;
18230;SDS011;9240;49.966;21.994;2024-03-25T11:06:22;3.33;;;1.90;;
18230;SDS011;9240;49.966;21.994;2024-03-25T11:08:55;2.97;;;1.60;;
18230;SDS011;9240;49.966;21.994;2024-03-25T11:11:21;3.15;;;2.13;;
18230;SDS011;9240;49.966;21.994;2024-03-25T11:13:46;4.05;;;2.00;;
18230;SDS011;9240;49.966;21.994;2024-03-25T11:16:13;2.80;;;1.58;;
18230;SDS011;9240;49.966;21.994;2024-03-25T11:18:39;1.95;;;1.38;;
18230;SDS011;9240;49.966;21.994;2024-03-25T11:21:04;2.03;;;1.60;;
18230;SDS011;9240;49.966;21.994;2024-03-25T11:23:35;3.58;;;2.20;;
18230;SDS011;9240;49.966;21.994;2024-03-25T11:26:16;2.67;;;1.85;;
18230;SDS011;9240;49.966;21.994;2024-03-25T11:28:42;4.40;;;1.60;;
18230;SDS011;9240;49.966;21.994;2024-03-25T11:31:07;2.08;;;1.55;;
18230;SDS011;9240;49.966;21.994;2024-03-25T11:33:34;2.65;;;1.80;;
18230;SDS011;9240;49.966;21.994;2024-03-25T11:36:02;3.42;;;1.67;;
18230;SDS011;9240;49.966;21.994;2024-03-25T11:38:27;2.63;;;1.83;;
18230;SDS011;9240;49.966;21.994;2024-03-25T11:40:53;3.08;;;1.58;;
18230;SDS011;9240;49.966;21.994;2024-03-25T11:43:19;2.63;;;1.60;;
18230;SDS011;9240;49.966;21.994;2024-03-25T11:45:47;3.17;;;1.85;;
18230;SDS011;9240;49.966;21.994;2024-03-25T11:48:13;2.50;;;1.58;;
18230;SDS011;9240;49.966;21.994;2024-03-25T11:50:41;2.10;;;1.50;;
18230;SDS011;9240;49.966;21.994;2024-03-25T11:53:07;3.38;;;1.50;;
18230;SDS011;9240;49.966;21.994;2024-03-25T11:55:32;1.95;;;1.45;;
18230;SDS011;9240;49.966;21.994;2024-03-25T11:57:58;3.00;;;1.80;;
18230;SDS011;9240;49.966;21.994;2024-03-25T12:00:24;2.35;;;1.50;;
18230;SDS011;9240;49.966;21.994;2024-03-25T12:02:50;1.63;;;1.20;;
18230;SDS011;9240;49.966;21.994;2024-03-25T12:05:15;1.80;;;1.40;;
18230;SDS011;9240;49.966;21.994;2024-03-25T12:07:42;2.75;;;1.70;;
18230;SDS011;9240;49.966;21.994;2024-03-25T12:10:08;3.03;;;1.42;;
18230;SDS011;9240;49.966;21.994;2024-03-25T12:12:33;2.78;;;1.73;;
18230;SDS011;9240;49.966;21.994;2024-03-25T12:14:59;4.13;;;2.08;;
18230;SDS011;9240;49.966;21.994;2024-03-25T12:17:24;3.33;;;2.00;;
18230;SDS011;9240;49.966;21.994;2024-03-25T12:20:01;8.98;;;3.95;;
18230;SDS011;9240;49.966;21.994;2024-03-25T12:22:27;2.00;;;1.40;;
18230;SDS011;9240;49.966;21.994;2024-03-25T12:24:56;1.30;;;0.93;;
18230;SDS011;9240;49.966;21.994;2024-03-25T12:27:22;2.13;;;1.10;;
18230;SDS011;9240;49.966;21.994;2024-03-25T12:29:56;2.08;;;1.10;;
18230;SDS011;9240;49.966;21.994;2024-03-25T12:32:29;3.35;;;1.55;;
18230;SDS011;9240;49.966;21.994;2024-03-25T12:34:55;2.65;;;1.60;;
18230;SDS011;9240;49.966;21.994;2024-03-25T12:37:22;4.75;;;1.80;;
18230;SDS011;9240;49.966;21.994;2024-03-25T12:39:48;1.65;;;1.33;;
18230;SDS011;9240;49.966;21.994;2024-03-25T12:42:15;1.63;;;1.05;;
18230;SDS011;9240;49.966;21.994;2024-03-25T12:44:40;2.03;;;1.30;;
18230;SDS011;9240;49.966;21.994;2024-03-25T12:47:06;2.53;;;1.40;;
18230;SDS011;9240;49.966;21.994;2024-03-25T12:49:31;2.03;;;1.27;;
18230;SDS011;9240;49.966;21.994;2024-03-25T12:51:57;2.15;;;1.30;;
18230;SDS011;9240;49.966;21.994;2024-03-25T12:54:22;2.22;;;1.60;;
18230;SDS011;9240;49.966;21.994;2024-03-25T12:56:48;5.32;;;2.90;;
18230;SDS011;9240;49.966;21.994;2024-03-25T12:59:15;5.40;;;3.03;;
18230;SDS011;9240;49.966;21.994;2024-03-25T13:01:40;5.20;;;3.17;;
18230;SDS011;9240;49.966;21.994;2024-03-25T13:04:05;13.50;;;6.90;;
18230;SDS011;9240;49.966;21.994;2024-03-25T13:06:31;7.70;;;4.57;;
18230;SDS011;9240;49.966;21.994;2024-03-25T13:08:57;3.42;;;1.45;;
18230;SDS011;9240;49.966;21.994;2024-03-25T13:11:22;1.35;;;1.05;;
18230;SDS011;9240;49.966;21.994;2024-03-25T13:13:48;3.20;;;0.95;;
18230;SDS011;9240;49.966;21.994;2024-03-25T13:16:14;1.25;;;1.15;;
18230;SDS011;9240;49.966;21.994;2024-03-25T13:18:40;3.25;;;1.33;;
18230;SDS011;9240;49.966;21.994;2024-03-25T13:21:05;2.85;;;0.80;;
18230;SDS011;9240;49.966;21.994;2024-03-25T13:23:31;0.90;;;0.70;;
18230;SDS011;9240;49.966;21.994;2024-03-25T13:25:56;1.00;;;0.80;;
18230;SDS011;9240;49.966;21.994;2024-03-25T13:28:22;0.98;;;0.63;;
18230;SDS011;9240;49.966;21.994;2024-03-25T13:30:47;0.90;;;0.70;;
18230;SDS011;9240;49.966;21.994;2024-03-25T13:33:14;0.68;;;0.60;;
18230;SDS011;9240;49.966;21.994;2024-03-25T13:35:39;0.93;;;0.75;;
18230;SDS011;9240;49.966;21.994;2024-03-25T13:38:05;1.38;;;1.00;;
18230;SDS011;9240;49.966;21.994;2024-03-25T13:40:30;2.53;;;1.15;;
18230;SDS011;9240;49.966;21.994;2024-03-25T13:42:56;12.38;;;5.63;;
18230;SDS011;9240;49.966;21.994;2024-03-25T13:45:21;8.02;;;4.13;;
18230;SDS011;9240;49.966;21.994;2024-03-25T13:47:46;1.33;;;0.90;;
18230;SDS011;9240;49.966;21.994;2024-03-25T13:50:13;2.47;;;1.85;;
18230;SDS011;9240;49.966;21.994;2024-03-25T13:52:39;2.13;;;1.50;;
18230;SDS011;9240;49.966;21.994;2024-03-25T13:55:04;1.83;;;1.35;;
18230;SDS011;9240;49.966;21.994;2024-03-25T13:57:30;2.47;;;1.65;;
18230;SDS011;9240;49.966;21.994;2024-03-25T13:59:55;3.05;;;1.63;;
18230;SDS011;9240;49.966;21.994;2024-03-25T14:02:21;2.80;;;1.50;;
18230;SDS011;9240;49.966;21.994;2024-03-25T14:04:46;1.60;;;1.05;;
18230;SDS011;9240;49.966;21.994;2024-03-25T14:07:13;2.28;;;1.20;;
18230;SDS011;9240;49.966;21.994;2024-03-25T14:09:38;2.05;;;1.23;;
18230;SDS011;9240;49.966;21.994;2024-03-25T14:12:04;1.25;;;0.98;;
18230;SDS011;9240;49.966;21.994;2024-03-25T14:14:30;1.70;;;1.00;;
18230;SDS011;9240;49.966;21.994;2024-03-25T14:16:56;3.15;;;1.10;;
18230;SDS011;9240;49.966;21.994;2024-03-25T14:19:21;2.15;;;1.30;;
18230;SDS011;9240;49.966;21.994;2024-03-25T14:21:47;5.40;;;2.70;;
18230;SDS011;9240;49.966;21.994;2024-03-25T14:24:14;5.27;;;2.90;;
18230;SDS011;9240;49.966;21.994;2024-03-25T14:26:40;5.27;;;3.20;;
18230;SDS011;9240;49.966;21.994;2024-03-25T14:29:05;6.60;;;4.07;;